Carcroft, United Kingdom
Current Conditions -  °F | °C
As of 11:20 AM on Tuesday 21 Oct 2014 (Local Time) from EGCN Reporting Station
Rain Showers Rain Showers  
Wind Chill:   Ceiling: 3300
Heat Index:   Visibility: 6mi
Dew Point:   Wind: 25mph
Humidity: 87%   Direction: 290°WNW
Pressure: 29.53"   Gusts: 44mph
Location:  53.58°N, 1.18°W
Report Text: EGCN 211020Z 29022G38KT 9999 -SHRA FEW022 BKN033 08/06 Q1000
Loading
Personal Weather Stations






























Interactive Weather Map
Tropical Storm Tracking
New forecast layout! Learn more

10-Day Weather Forecast

Advertisements
Track Severe Weather on mobile